createdAt,value
2019-03-27T00:00:03.436Z,5.96
2019-03-27T00:01:03.326Z,5.90
2019-03-27T00:02:03.345Z,5.88
2019-03-27T00:03:03.291Z,5.95
2019-03-27T00:04:03.393Z,5.87
2019-03-27T00:05:03.304Z,5.95
2019-03-27T00:06:03.381Z,5.87
2019-03-27T00:07:03.256Z,5.75
2019-03-27T00:08:03.294Z,5.84
2019-03-27T00:09:03.270Z,5.74
2019-03-27T00:10:03.304Z,5.83
2019-03-27T00:11:03.218Z,5.73
2019-03-27T00:12:03.320Z,5.66
2019-03-27T00:13:03.191Z,5.62
2019-03-27T00:14:03.262Z,5.60
2019-03-27T00:15:12.732Z,5.59
2019-03-27T00:16:04.160Z,5.51
2019-03-27T00:17:03.251Z,5.58
2019-03-27T00:18:03.151Z,5.44
2019-03-27T00:19:03.189Z,5.49
2019-03-27T00:20:03.168Z,5.45
2019-03-27T00:21:03.171Z,5.42
2019-03-27T00:22:03.134Z,5.42
2019-03-27T00:23:03.197Z,5.40
2019-03-27T00:24:03.071Z,5.29
2019-03-27T00:25:03.136Z,5.27
2019-03-27T00:26:03.074Z,5.26
2019-03-27T00:27:03.129Z,5.22
2019-03-27T00:28:03.056Z,5.32
2019-03-27T00:29:03.122Z,5.32
2019-03-27T00:30:03.049Z,5.35
2019-03-27T00:31:03.048Z,5.26
2019-03-27T00:32:03.014Z,5.23
2019-03-27T00:33:03.054Z,5.20
2019-03-27T00:34:02.967Z,5.19
2019-03-27T00:35:03.091Z,5.17
2019-03-27T00:36:03.146Z,5.22
2019-03-27T00:37:02.974Z,5.12
2019-03-27T00:38:02.921Z,5.08
2019-03-27T00:39:03.002Z,5.04
2019-03-27T00:40:02.960Z,5.02
2019-03-27T00:41:03.022Z,4.99
2019-03-27T00:42:02.896Z,4.94
2019-03-27T00:43:02.953Z,4.87
2019-03-27T00:44:02.857Z,4.90
2019-03-27T00:45:02.951Z,4.79
2019-03-27T00:46:02.878Z,4.77
2019-03-27T00:47:02.954Z,4.68
2019-03-27T00:48:02.843Z,4.75
2019-03-27T00:49:02.872Z,4.62
2019-03-27T00:50:02.804Z,4.65
2019-03-27T00:51:02.906Z,4.67
2019-03-27T00:52:02.786Z,4.59
2019-03-27T00:53:02.907Z,4.53
2019-03-27T00:54:02.748Z,4.56
2019-03-27T00:55:02.815Z,4.51
2019-03-27T00:56:02.749Z,4.49
2019-03-27T00:57:02.827Z,4.49
2019-03-27T00:58:02.719Z,4.51
2019-03-27T00:59:02.726Z,4.46
2019-03-27T01:00:02.689Z,4.51
2019-03-27T01:01:02.776Z,4.38
2019-03-27T01:02:02.670Z,4.46
2019-03-27T01:03:02.754Z,4.46
2019-03-27T01:04:02.651Z,4.46
2019-03-27T01:05:02.663Z,4.42
2019-03-27T01:06:02.646Z,4.36
2019-03-27T01:07:02.618Z,4.43
2019-03-27T01:08:02.608Z,4.47
2019-03-27T01:09:02.704Z,4.34
2019-03-27T01:10:02.576Z,4.28
2019-03-27T01:11:02.627Z,4.28
2019-03-27T01:12:02.563Z,4.26
2019-03-27T01:13:02.631Z,4.31
2019-03-27T01:14:02.540Z,4.26
2019-03-27T01:15:02.623Z,4.17
2019-03-27T01:16:02.528Z,4.17
2019-03-27T01:17:02.680Z,4.29
2019-03-27T01:18:02.488Z,4.26
2019-03-27T01:19:02.562Z,4.17
2019-03-27T01:20:02.472Z,4.25
2019-03-27T01:21:02.566Z,4.24
2019-03-27T01:22:02.464Z,4.26
2019-03-27T01:23:02.497Z,4.28
2019-03-27T01:24:02.423Z,4.26
2019-03-27T01:25:02.495Z,4.25
2019-03-27T01:26:02.404Z,4.18
2019-03-27T01:27:02.553Z,4.28
2019-03-27T01:28:02.396Z,4.25
2019-03-27T01:29:02.430Z,4.24
2019-03-27T01:30:02.371Z,4.21
2019-03-27T01:31:02.432Z,4.29
2019-03-27T01:32:02.375Z,4.24
2019-03-27T01:33:02.470Z,4.31
2019-03-27T01:34:02.328Z,4.32
2019-03-27T01:35:02.364Z,4.28
2019-03-27T01:36:02.297Z,4.46
2019-03-27T01:37:02.413Z,4.29
2019-03-27T01:38:02.270Z,4.35
2019-03-27T01:39:02.380Z,4.43
2019-03-27T01:40:02.252Z,4.42
2019-03-27T01:41:02.304Z,4.46
2019-03-27T01:42:02.252Z,4.43
2019-03-27T01:43:02.311Z,4.47
2019-03-27T01:44:02.208Z,4.44
2019-03-27T01:45:02.222Z,4.39
2019-03-27T01:46:02.186Z,4.44
2019-03-27T01:47:02.270Z,4.38
2019-03-27T01:48:02.164Z,4.43
2019-03-27T01:49:02.258Z,4.36
2019-03-27T01:50:02.173Z,4.47
2019-03-27T01:51:02.168Z,4.46
2019-03-27T01:52:02.160Z,4.49
2019-03-27T01:53:02.190Z,4.46
2019-03-27T01:54:02.123Z,4.44
2019-03-27T01:55:02.190Z,4.43
2019-03-27T01:56:02.101Z,4.46
2019-03-27T01:57:02.248Z,4.50
2019-03-27T01:58:02.059Z,4.42
2019-03-27T01:59:02.116Z,4.36
2019-03-27T02:00:02.037Z,4.51
2019-03-27T02:01:02.133Z,4.50
2019-03-27T02:02:02.048Z,4.54
2019-03-27T02:03:02.078Z,4.53
2019-03-27T02:04:01.993Z,4.49
2019-03-27T02:06:03.022Z,4.53
2019-03-27T02:07:02.102Z,4.50
2019-03-27T02:08:01.982Z,4.50
2019-03-27T02:09:01.988Z,4.49
2019-03-27T02:10:01.937Z,4.54
2019-03-27T02:11:02.015Z,4.51
2019-03-27T02:12:01.922Z,4.54
2019-03-27T02:13:02.093Z,4.53
2019-03-27T02:14:01.881Z,4.49
2019-03-27T02:15:01.923Z,4.47
2019-03-27T02:16:07.048Z,4.47
2019-03-27T02:17:02.953Z,4.50
2019-03-27T02:18:01.867Z,4.42
2019-03-27T02:19:01.959Z,4.46
2019-03-27T02:20:01.847Z,4.46
2019-03-27T02:22:02.846Z,4.49
2019-03-27T02:23:02.930Z,4.44
2019-03-27T02:24:01.782Z,4.43
2019-03-27T02:25:01.903Z,4.36
2019-03-27T02:26:01.749Z,4.39
2019-03-27T02:27:01.802Z,4.26
2019-03-27T02:28:01.788Z,4.38
2019-03-27T02:29:01.815Z,4.29
2019-03-27T02:30:01.716Z,4.28
2019-03-27T02:31:01.729Z,4.13
2019-03-27T02:32:01.711Z,4.11
2019-03-27T02:33:01.741Z,4.08
2019-03-27T02:34:01.754Z,3.95
2019-03-27T02:35:01.766Z,3.92
2019-03-27T02:36:01.646Z,3.89
2019-03-27T02:38:02.675Z,3.89
2019-03-27T02:39:01.707Z,3.88
2019-03-27T02:40:01.621Z,3.82
2019-03-27T02:41:01.707Z,3.82
2019-03-27T02:42:01.587Z,3.72
2019-03-27T02:43:01.601Z,3.70
2019-03-27T02:44:01.591Z,3.68
2019-03-27T02:45:01.617Z,3.63
2019-03-27T02:46:01.549Z,3.64
2019-03-27T02:47:01.628Z,3.53
2019-03-27T02:48:01.517Z,3.50
2019-03-27T02:49:01.545Z,3.45
2019-03-27T02:50:01.522Z,3.44
2019-03-27T02:51:01.567Z,3.39
2019-03-27T02:52:01.485Z,3.35
2019-03-27T02:53:01.573Z,3.35
2019-03-27T02:54:01.480Z,3.39
2019-03-27T02:55:01.482Z,3.26
2019-03-27T02:56:01.423Z,3.30
2019-03-27T02:57:01.628Z,3.26
2019-03-27T02:58:01.411Z,3.31
2019-03-27T02:59:01.541Z,3.23
2019-03-27T03:00:01.421Z,3.19
2019-03-27T03:01:01.421Z,3.16
2019-03-27T03:02:01.363Z,3.15
2019-03-27T03:03:01.434Z,3.08
2019-03-27T03:04:01.342Z,3.05
2019-03-27T03:05:02.402Z,3.02
2019-03-27T03:06:01.351Z,2.97
2019-03-27T03:07:01.364Z,2.94
2019-03-27T03:08:01.295Z,2.97
2019-03-27T03:09:01.428Z,2.90
2019-03-27T03:10:01.378Z,2.86
2019-03-27T03:11:01.391Z,2.81
2019-03-27T03:12:01.258Z,2.74
2019-03-27T03:13:01.301Z,2.79
2019-03-27T03:14:01.244Z,2.71
2019-03-27T03:15:01.349Z,2.83
2019-03-27T03:16:01.228Z,2.66
2019-03-27T03:17:01.325Z,2.79
2019-03-27T03:18:01.220Z,2.69
2019-03-27T03:19:01.276Z,2.77
2019-03-27T03:20:01.281Z,2.71
2019-03-27T03:21:01.253Z,2.74
2019-03-27T03:22:01.180Z,2.68
2019-03-27T03:23:01.169Z,2.66
2019-03-27T03:24:01.120Z,2.66
2019-03-27T03:25:01.219Z,2.69
2019-03-27T03:26:01.117Z,2.71
2019-03-27T03:27:01.222Z,2.81
2019-03-27T03:28:01.089Z,2.73
2019-03-27T03:29:01.109Z,2.76
2019-03-27T03:30:01.057Z,2.77
2019-03-27T03:31:01.180Z,2.69
2019-03-27T03:32:01.031Z,2.77
2019-03-27T03:33:01.143Z,2.74
2019-03-27T03:34:01.143Z,2.76
2019-03-27T03:35:01.117Z,2.74
2019-03-27T03:36:01.025Z,2.62
2019-03-27T03:37:01.057Z,2.73
2019-03-27T03:38:00.980Z,2.76
2019-03-27T03:39:01.092Z,2.69
2019-03-27T03:40:00.954Z,2.69
2019-03-27T03:41:01.015Z,2.66
2019-03-27T03:42:00.936Z,2.51
2019-03-27T03:43:01.000Z,2.63
2019-03-27T03:44:00.909Z,2.61
2019-03-27T03:45:01.028Z,2.59
2019-03-27T03:46:00.923Z,2.58
2019-03-27T03:47:00.945Z,2.56
2019-03-27T03:48:00.913Z,2.62
2019-03-27T03:49:00.951Z,2.47
2019-03-27T03:50:00.958Z,2.61
2019-03-27T03:51:01.009Z,2.58
2019-03-27T03:52:00.827Z,2.61
2019-03-27T03:53:00.875Z,2.59
2019-03-27T03:54:00.797Z,2.55
2019-03-27T03:55:00.919Z,2.53
2019-03-27T03:56:00.838Z,2.41
2019-03-27T03:57:00.806Z,2.40
2019-03-27T03:58:00.751Z,2.44
2019-03-27T03:59:00.805Z,2.33
2019-03-27T04:00:00.725Z,2.38
2019-03-27T04:01:00.907Z,2.38
2019-03-27T04:02:00.752Z,2.41
2019-03-27T04:03:00.742Z,2.32
2019-03-27T04:04:00.708Z,2.32
2019-03-27T04:05:00.744Z,2.33
2019-03-27T04:06:00.668Z,2.36
2019-03-27T04:07:01.736Z,2.38
2019-03-27T04:08:00.646Z,2.30
2019-03-27T04:10:01.671Z,2.36
2019-03-27T04:11:00.680Z,2.38
2019-03-27T04:12:00.625Z,2.33
2019-03-27T04:13:00.694Z,2.30
2019-03-27T04:14:00.577Z,2.40
2019-03-27T04:15:00.611Z,2.37
2019-03-27T04:16:00.574Z,2.40
2019-03-27T04:17:16.308Z,2.40
2019-03-27T04:18:01.552Z,2.37
2019-03-27T04:19:00.643Z,2.48
2019-03-27T04:20:00.523Z,2.48
2019-03-27T04:21:00.547Z,2.45
2019-03-27T04:22:00.516Z,2.51
2019-03-27T04:23:00.557Z,2.48
2019-03-27T04:24:00.467Z,2.51
2019-03-27T04:26:09.521Z,2.59
2019-03-27T04:27:01.552Z,2.62
2019-03-27T04:28:00.480Z,2.61
2019-03-27T04:29:00.554Z,2.73
2019-03-27T04:30:00.491Z,2.74
2019-03-27T04:31:00.571Z,2.66
2019-03-27T04:32:00.379Z,2.66
2019-03-27T04:33:00.451Z,2.73
2019-03-27T04:34:00.379Z,2.76
2019-03-27T04:35:00.637Z,2.79
2019-03-27T04:36:00.351Z,2.79
2019-03-27T04:37:00.354Z,2.86
2019-03-27T04:38:00.348Z,2.98
2019-03-27T04:40:01.343Z,3.07
2019-03-27T04:41:00.386Z,3.15
2019-03-27T04:42:00.268Z,3.16
2019-03-27T04:43:00.323Z,3.16
2019-03-27T04:44:00.242Z,3.35
2019-03-27T04:45:00.434Z,3.31
2019-03-27T04:46:00.229Z,3.35
2019-03-27T04:47:00.321Z,3.44
2019-03-27T04:48:00.229Z,3.49
2019-03-27T04:49:00.257Z,3.54
2019-03-27T04:50:00.454Z,3.49
2019-03-27T04:51:00.238Z,3.54
2019-03-27T04:52:00.156Z,3.57
2019-03-27T04:53:00.287Z,3.59
2019-03-27T04:54:00.168Z,3.63
2019-03-27T04:55:00.398Z,3.64
2019-03-27T04:56:00.115Z,3.67
2019-03-27T04:57:00.185Z,3.60
2019-03-27T04:58:00.087Z,3.67
2019-03-27T04:59:00.239Z,3.70
2019-03-27T05:00:00.400Z,3.70
2019-03-27T05:01:00.147Z,3.64
2019-03-27T05:02:00.046Z,3.74
2019-03-27T05:03:00.172Z,3.71
2019-03-27T05:04:00.064Z,3.75
2019-03-27T05:06:01.055Z,3.81
2019-03-27T05:07:00.056Z,3.81
2019-03-27T05:07:59.979Z,3.84
2019-03-27T05:09:00.094Z,3.82
2019-03-27T05:09:59.989Z,3.82
2019-03-27T05:11:00.088Z,3.82
2019-03-27T05:11:59.970Z,3.81
2019-03-27T05:12:59.988Z,3.88
2019-03-27T05:13:59.949Z,3.88
2019-03-27T05:15:00.003Z,3.86
2019-03-27T05:15:59.924Z,3.89
2019-03-27T05:16:59.921Z,3.90
2019-03-27T05:17:59.873Z,3.95
2019-03-27T05:18:59.971Z,3.98
2019-03-27T05:19:59.884Z,3.96
2019-03-27T05:20:59.943Z,3.98
2019-03-27T05:21:59.843Z,4.08
2019-03-27T05:22:59.856Z,4.08
2019-03-27T05:23:59.878Z,4.04
2019-03-27T05:24:59.867Z,4.00
2019-03-27T05:25:59.794Z,4.10
2019-03-27T05:26:59.893Z,4.07
2019-03-27T05:27:59.763Z,4.10
2019-03-27T05:28:59.826Z,4.11
2019-03-27T05:29:59.801Z,4.04
2019-03-27T05:30:59.810Z,4.02
2019-03-27T05:31:59.750Z,4.14
2019-03-27T05:32:59.821Z,4.13
2019-03-27T05:33:59.717Z,4.24
2019-03-27T05:34:59.774Z,4.17
2019-03-27T05:35:59.680Z,4.16
2019-03-27T05:36:59.756Z,4.20
2019-03-27T05:37:59.671Z,4.28
2019-03-27T05:38:59.761Z,4.21
2019-03-27T05:39:59.730Z,4.26
2019-03-27T05:40:59.690Z,4.24
2019-03-27T05:41:59.631Z,4.26
2019-03-27T05:43:01.196Z,4.32
2019-03-27T05:43:59.605Z,4.34
2019-03-27T05:44:59.724Z,4.38
2019-03-27T05:45:59.569Z,4.42
2019-03-27T05:46:59.636Z,4.42
2019-03-27T05:48:00.187Z,4.34
2019-03-27T05:48:59.624Z,4.43
2019-03-27T05:49:59.567Z,4.43
2019-03-27T05:50:59.634Z,4.34
2019-03-27T05:51:59.534Z,4.46
2019-03-27T05:52:59.547Z,4.46
2019-03-27T05:53:59.483Z,4.44
2019-03-27T05:54:59.604Z,4.50
2019-03-27T05:55:59.487Z,4.47
2019-03-27T05:56:59.599Z,4.50
2019-03-27T05:57:59.445Z,4.51
2019-03-27T05:58:59.497Z,4.51
2019-03-27T05:59:59.460Z,4.49
2019-03-27T06:00:59.527Z,4.50
2019-03-27T06:01:59.408Z,4.51
2019-03-27T06:02:59.529Z,4.56
2019-03-27T06:03:59.372Z,4.62
2019-03-27T06:04:59.448Z,4.56
2019-03-27T06:05:59.583Z,4.62
2019-03-27T06:06:59.478Z,4.68
2019-03-27T06:07:59.351Z,4.69
2019-03-27T06:08:59.348Z,4.71
2019-03-27T06:09:59.350Z,4.72
2019-03-27T06:10:59.363Z,4.79
2019-03-27T06:11:59.286Z,4.80
2019-03-27T06:12:59.375Z,4.77
2019-03-27T06:13:59.283Z,4.87
2019-03-27T06:14:59.328Z,4.88
2019-03-27T06:15:59.285Z,4.93
2019-03-27T06:16:59.307Z,4.94
2019-03-27T06:18:12.259Z,4.99
2019-03-27T06:19:00.212Z,5.02
2019-03-27T06:19:59.359Z,5.04
2019-03-27T06:20:59.266Z,5.04
2019-03-27T06:21:59.267Z,5.09
2019-03-27T06:22:59.182Z,5.14
2019-03-27T06:23:59.253Z,5.14
2019-03-27T06:24:59.149Z,5.24
2019-03-27T06:25:59.297Z,5.24
2019-03-27T06:26:59.137Z,5.30
2019-03-27T06:27:59.181Z,5.26
2019-03-27T06:28:59.110Z,5.30
2019-03-27T06:29:59.214Z,5.32
2019-03-27T06:30:59.115Z,5.37
2019-03-27T06:31:59.142Z,5.40
2019-03-27T06:32:59.078Z,5.41
2019-03-27T06:33:59.129Z,5.33
2019-03-27T06:34:59.057Z,5.40
2019-03-27T06:35:59.135Z,5.42
2019-03-27T06:36:59.050Z,5.47
2019-03-27T06:37:59.047Z,5.48
2019-03-27T06:38:59.003Z,5.55
2019-03-27T06:39:59.067Z,5.45
2019-03-27T06:40:59.021Z,5.52
2019-03-27T06:41:59.087Z,5.59
2019-03-27T06:42:58.989Z,5.62
2019-03-27T06:43:58.979Z,5.73
2019-03-27T06:44:58.937Z,5.77
2019-03-27T06:45:58.994Z,5.74
2019-03-27T06:46:58.934Z,5.77
2019-03-27T06:47:59.013Z,5.73
2019-03-27T06:48:58.899Z,5.83
2019-03-27T06:49:58.919Z,5.93
2019-03-27T06:50:58.865Z,5.92
2019-03-27T06:51:58.963Z,5.90
2019-03-27T06:52:58.873Z,5.96
2019-03-27T06:53:58.953Z,5.93
2019-03-27T06:54:58.830Z,6.02
2019-03-27T06:55:58.867Z,6.05
2019-03-27T06:57:01.186Z,6.08
2019-03-27T06:57:58.929Z,6.08
2019-03-27T06:58:58.795Z,6.16
2019-03-27T06:59:58.889Z,6.16
2019-03-27T07:00:58.779Z,6.16
2019-03-27T07:01:58.841Z,6.19
2019-03-27T07:02:58.745Z,6.20
2019-03-27T07:04:09.843Z,6.33
2019-03-27T07:04:59.725Z,6.24
2019-03-27T07:05:58.828Z,6.27
2019-03-27T07:06:58.700Z,6.54
2019-03-27T07:07:58.763Z,6.51
2019-03-27T07:08:58.671Z,6.54
2019-03-27T07:09:58.750Z,6.51
2019-03-27T07:10:58.665Z,6.55
2019-03-27T07:11:58.775Z,6.63
2019-03-27T07:12:58.664Z,6.61
2019-03-27T07:13:58.687Z,6.63
2019-03-27T07:14:58.627Z,6.63
2019-03-27T07:15:58.723Z,6.64
2019-03-27T07:16:58.586Z,6.64
2019-03-27T07:17:58.637Z,6.75
2019-03-27T07:18:58.602Z,6.75
2019-03-27T07:19:58.624Z,6.75
2019-03-27T07:20:58.555Z,6.82
2019-03-27T07:22:59.582Z,6.78
2019-03-27T07:23:58.576Z,6.79
2019-03-27T07:24:58.503Z,6.79
2019-03-27T07:25:58.556Z,6.82
2019-03-27T07:26:58.489Z,6.82
2019-03-27T07:27:58.586Z,6.81
2019-03-27T07:28:58.525Z,6.76
2019-03-27T07:29:58.883Z,6.86
2019-03-27T07:30:58.646Z,6.90
2019-03-27T07:31:58.492Z,6.91
2019-03-27T07:32:58.447Z,7.04
2019-03-27T07:33:58.510Z,6.96
2019-03-27T07:34:58.400Z,6.97
2019-03-27T07:35:58.422Z,6.96
2019-03-27T07:36:58.377Z,6.94
2019-03-27T07:37:58.525Z,6.96
2019-03-27T07:39:10.497Z,6.99
2019-03-27T07:39:59.342Z,6.96
2019-03-27T07:40:58.374Z,6.94
2019-03-27T07:41:58.313Z,7.04
2019-03-27T07:42:58.392Z,7.14
2019-03-27T07:43:58.334Z,7.14
2019-03-27T07:44:58.399Z,7.18
2019-03-27T07:45:58.307Z,7.18
2019-03-27T07:46:58.305Z,7.21
2019-03-27T07:47:58.270Z,7.24
2019-03-27T07:48:58.361Z,7.24
2019-03-27T07:49:58.236Z,7.30
2019-03-27T07:50:58.315Z,7.23
2019-03-27T07:51:58.202Z,7.26
2019-03-27T07:52:58.242Z,7.23
2019-03-27T07:53:58.227Z,7.16
2019-03-27T07:54:58.320Z,7.29
2019-03-27T07:55:58.214Z,7.24
2019-03-27T07:56:58.256Z,7.21
2019-03-27T07:57:58.171Z,7.19
2019-03-27T07:58:59.804Z,7.33
2019-03-27T07:59:58.114Z,7.37
2019-03-27T08:01:59.152Z,7.30
2019-03-27T08:02:58.198Z,7.36
2019-03-27T08:03:58.072Z,7.36
2019-03-27T08:04:58.153Z,7.36
2019-03-27T08:05:58.056Z,7.34
2019-03-27T08:07:59.079Z,7.36
2019-03-27T08:08:58.172Z,7.45
2019-03-27T08:09:58.076Z,7.55
2019-03-27T08:10:58.060Z,7.62
2019-03-27T08:11:58.005Z,7.74
2019-03-27T08:12:58.416Z,7.76
2019-03-27T08:13:57.961Z,7.79
2019-03-27T08:14:58.016Z,7.76
2019-03-27T08:15:57.947Z,7.76
2019-03-27T08:16:58.001Z,7.84
2019-03-27T08:17:57.923Z,7.79
2019-03-27T08:19:07.476Z,7.89
2019-03-27T08:19:58.925Z,8.06
2019-03-27T08:20:57.914Z,8.31
2019-03-27T08:21:57.895Z,8.34
2019-03-27T08:22:57.944Z,8.39
2019-03-27T08:23:57.865Z,8.46
2019-03-27T08:24:58.082Z,8.49
2019-03-27T08:26:58.827Z,8.52
2019-03-27T08:27:57.870Z,8.55
2019-03-27T08:28:57.809Z,8.67
2019-03-27T08:29:57.902Z,8.67
2019-03-27T08:30:57.811Z,8.67
2019-03-27T08:31:57.886Z,8.47
2019-03-27T08:32:57.768Z,8.49
2019-03-27T08:33:57.800Z,8.50
2019-03-27T08:34:57.833Z,8.55
2019-03-27T08:35:57.873Z,8.45
2019-03-27T08:36:57.715Z,8.54
2019-03-27T08:37:57.727Z,8.40
2019-03-27T08:38:57.797Z,8.47
2019-03-27T08:39:57.738Z,8.46
2019-03-27T08:40:57.755Z,8.65
2019-03-27T08:41:57.769Z,8.79
2019-03-27T08:42:57.652Z,8.96
2019-03-27T08:43:57.668Z,9.30
2019-03-27T08:44:57.626Z,9.37
2019-03-27T08:45:57.798Z,9.44
2019-03-27T08:46:57.600Z,9.13
2019-03-27T08:47:57.690Z,9.03
2019-03-27T08:48:57.638Z,8.85
2019-03-27T08:49:57.607Z,8.63
2019-03-27T08:50:57.602Z,8.50
2019-03-27T08:51:57.646Z,8.42
2019-03-27T08:52:57.560Z,8.40
2019-03-27T08:53:57.629Z,8.46
2019-03-27T08:54:57.530Z,8.58
2019-03-27T08:55:57.539Z,8.70
2019-03-27T08:56:57.522Z,8.93
2019-03-27T08:57:57.566Z,9.03
2019-03-27T08:58:57.476Z,9.23
2019-03-27T08:59:57.682Z,9.27
2019-03-27T09:00:57.453Z,9.44
2019-03-27T09:01:57.509Z,9.48
2019-03-27T09:02:57.431Z,9.52
2019-03-27T09:03:57.502Z,9.56
2019-03-27T09:04:57.412Z,9.59
2019-03-27T09:05:57.508Z,9.67
2019-03-27T09:06:57.408Z,9.65
2019-03-27T09:07:57.444Z,9.62
2019-03-27T09:08:57.373Z,9.59
2019-03-27T09:09:57.442Z,9.38
2019-03-27T09:10:57.364Z,9.23
2019-03-27T09:11:57.588Z,9.19
2019-03-27T09:12:57.334Z,9.12
2019-03-27T09:13:57.372Z,9.06
2019-03-27T09:14:57.336Z,9.03
2019-03-27T09:15:57.379Z,8.97
2019-03-27T09:16:57.333Z,8.86
2019-03-27T09:17:57.412Z,9.01
2019-03-27T09:18:57.263Z,9.17
2019-03-27T09:19:57.311Z,9.19
2019-03-27T09:20:57.241Z,9.35
2019-03-27T09:21:57.371Z,9.67
2019-03-27T09:22:57.244Z,9.63
2019-03-27T09:23:57.229Z,9.73
2019-03-27T09:24:57.197Z,9.75
2019-03-27T09:25:57.267Z,9.81
2019-03-27T09:26:57.212Z,9.91
2019-03-27T09:27:57.262Z,10.04
2019-03-27T09:28:57.165Z,10.18
2019-03-27T09:29:57.188Z,10.09
2019-03-27T09:30:57.124Z,10.04
2019-03-27T09:31:57.214Z,10.11
2019-03-27T09:32:57.151Z,10.22
2019-03-27T09:33:57.205Z,10.34
2019-03-27T09:34:57.113Z,10.35
2019-03-27T09:35:57.141Z,10.38
2019-03-27T09:36:57.067Z,10.46
2019-03-27T09:37:57.236Z,10.49
2019-03-27T09:38:57.059Z,10.58
2019-03-27T09:39:57.132Z,10.81
2019-03-27T09:40:57.034Z,10.83
2019-03-27T09:41:57.147Z,10.60
2019-03-27T09:42:57.014Z,10.32
2019-03-27T09:43:57.161Z,10.17
2019-03-27T09:44:56.969Z,9.95
2019-03-27T09:45:57.280Z,9.99
2019-03-27T09:46:56.977Z,10.17
2019-03-27T09:47:57.422Z,10.29
2019-03-27T09:48:56.924Z,10.49
2019-03-27T09:49:57.515Z,10.55
2019-03-27T09:50:56.914Z,10.31
2019-03-27T09:52:58.105Z,9.91
2019-03-27T09:54:57.919Z,9.53
2019-03-27T09:56:45.786Z,9.44
2019-03-27T09:57:57.921Z,9.32
2019-03-27T09:58:58.929Z,9.50
2019-03-27T09:59:56.811Z,9.70
2019-03-27T10:00:58.921Z,9.81
2019-03-27T10:01:56.802Z,10.01
2019-03-27T10:02:59.142Z,10.01
2019-03-27T10:03:56.794Z,10.10
2019-03-27T10:04:59.251Z,10.18
2019-03-27T10:05:56.749Z,10.11
2019-03-27T10:07:57.767Z,10.60
2019-03-27T10:08:59.418Z,10.72
2019-03-27T10:09:56.720Z,10.90
2019-03-27T10:11:57.753Z,11.12
2019-03-27T10:13:57.839Z,11.24
2019-03-27T10:15:57.701Z,11.36
2019-03-27T10:17:57.667Z,11.26
2019-03-27T10:19:00.002Z,11.39
2019-03-27T10:20:03.204Z,11.38
2019-03-27T10:21:00.078Z,11.33
2019-03-27T10:21:56.573Z,11.42
2019-03-27T10:23:57.652Z,11.48
2019-03-27T10:25:01.287Z,11.59
2019-03-27T10:25:56.538Z,11.84
2019-03-27T10:27:01.292Z,11.90
2019-03-27T10:27:56.501Z,11.97
2019-03-27T10:29:00.476Z,11.84
2019-03-27T10:29:56.509Z,11.54
2019-03-27T10:31:56.496Z,11.09
2019-03-27T10:32:58.529Z,11.05
2019-03-27T10:33:56.448Z,11.17
2019-03-27T10:34:56.537Z,11.28
2019-03-27T10:35:56.411Z,11.44
2019-03-27T10:36:56.506Z,11.67
2019-03-27T10:37:56.403Z,11.79
2019-03-27T10:38:56.423Z,11.70
2019-03-27T10:39:56.408Z,11.97
2019-03-27T10:40:56.448Z,12.08
2019-03-27T10:41:56.357Z,12.26
2019-03-27T10:42:56.445Z,12.26
2019-03-27T10:43:56.339Z,12.37
2019-03-27T10:44:56.395Z,12.37
2019-03-27T10:45:56.310Z,12.38
2019-03-27T10:46:56.373Z,12.21
2019-03-27T10:47:56.317Z,12.18
2019-03-27T10:48:56.394Z,12.08
2019-03-27T10:49:56.301Z,12.12
2019-03-27T10:50:56.339Z,12.29
2019-03-27T10:51:56.247Z,12.25
2019-03-27T10:52:56.307Z,12.31
2019-03-27T10:53:56.271Z,12.22
2019-03-27T10:54:56.356Z,12.26
2019-03-27T10:55:56.221Z,12.25
2019-03-27T10:56:56.235Z,12.33
2019-03-27T10:57:56.192Z,12.62
2019-03-27T10:58:56.251Z,12.70
2019-03-27T10:59:56.186Z,12.63
2019-03-27T11:00:56.263Z,12.61
2019-03-27T11:01:56.137Z,12.51
2019-03-27T11:02:56.186Z,12.46
2019-03-27T11:03:56.124Z,12.52
2019-03-27T11:04:56.252Z,12.46
2019-03-27T11:05:56.104Z,12.51
2019-03-27T11:06:56.250Z,12.49
2019-03-27T11:07:56.067Z,12.49
2019-03-27T11:08:56.132Z,12.33
2019-03-27T11:09:56.053Z,12.56
2019-03-27T11:10:56.203Z,12.61
2019-03-27T11:11:56.023Z,12.70
2019-03-27T11:12:56.037Z,12.77
2019-03-27T11:13:56.000Z,12.62
2019-03-27T11:14:56.063Z,12.77
2019-03-27T11:15:56.015Z,12.76
2019-03-27T11:16:56.074Z,12.56
2019-03-27T11:17:55.974Z,12.52
2019-03-27T11:18:55.963Z,12.46
2019-03-27T11:19:55.935Z,12.51
2019-03-27T11:20:56.032Z,12.31
2019-03-27T11:21:55.918Z,12.04
2019-03-27T11:22:56.006Z,11.75
2019-03-27T11:23:55.905Z,11.77
2019-03-27T11:24:55.926Z,11.77
2019-03-27T11:25:55.891Z,11.78
2019-03-27T11:26:55.933Z,11.82
2019-03-27T11:27:55.852Z,11.93
2019-03-27T11:28:55.949Z,11.93
2019-03-27T11:29:55.836Z,11.93
2019-03-27T11:30:56.100Z,11.87
2019-03-27T11:31:55.815Z,11.97
2019-03-27T11:32:55.870Z,12.07
2019-03-27T11:33:55.777Z,12.05
2019-03-27T11:34:55.883Z,12.13
2019-03-27T11:35:55.799Z,12.16
2019-03-27T11:36:55.846Z,12.29
2019-03-27T11:37:55.746Z,12.34
2019-03-27T11:38:55.814Z,12.46
2019-03-27T11:39:55.716Z,12.54
2019-03-27T11:40:55.834Z,12.49
2019-03-27T11:41:55.728Z,12.74
2019-03-27T11:42:55.739Z,13.01
2019-03-27T11:43:55.680Z,13.04
2019-03-27T11:44:55.756Z,13.35
2019-03-27T11:45:55.655Z,13.38
2019-03-27T11:46:55.702Z,13.46
2019-03-27T11:47:55.632Z,13.48
2019-03-27T11:48:55.705Z,13.46
2019-03-27T11:49:55.609Z,13.35
2019-03-27T11:50:55.689Z,13.48
2019-03-27T11:51:55.619Z,13.59
2019-03-27T11:52:55.601Z,13.73
2019-03-27T11:53:55.608Z,14.01
2019-03-27T11:54:55.698Z,14.20
2019-03-27T11:55:55.576Z,14.27
2019-03-27T11:56:55.691Z,14.23
2019-03-27T11:57:55.535Z,14.24
2019-03-27T11:58:55.572Z,14.30
2019-03-27T11:59:55.500Z,14.31
2019-03-27T12:00:55.565Z,14.24
2019-03-27T12:01:55.609Z,14.11
2019-03-27T12:02:55.584Z,13.96
2019-03-27T12:03:55.454Z,14.09
2019-03-27T12:04:55.481Z,14.08
2019-03-27T12:05:55.453Z,13.98
2019-03-27T12:06:55.536Z,14.04
2019-03-27T12:07:55.450Z,13.75
2019-03-27T12:08:55.510Z,13.61
2019-03-27T12:09:55.390Z,13.71
2019-03-27T12:10:55.436Z,13.81
2019-03-27T12:11:55.390Z,13.90
2019-03-27T12:12:55.482Z,13.84
2019-03-27T12:13:55.348Z,13.86
2019-03-27T12:14:55.477Z,13.91
2019-03-27T12:15:55.337Z,14.01
2019-03-27T12:16:55.364Z,13.91
2019-03-27T12:17:55.331Z,13.81
2019-03-27T12:18:55.386Z,13.80
2019-03-27T12:19:55.300Z,13.98
2019-03-27T12:20:59.519Z,14.06
2019-03-27T12:21:55.268Z,13.88
2019-03-27T12:22:57.820Z,13.88
2019-03-27T12:23:55.249Z,13.86
2019-03-27T12:24:55.309Z,13.88
2019-03-27T12:25:55.561Z,14.05
2019-03-27T12:26:55.338Z,14.01
2019-03-27T12:27:55.253Z,13.80
2019-03-27T12:28:55.243Z,13.55
2019-03-27T12:29:55.174Z,13.50
2019-03-27T12:30:55.258Z,13.48
2019-03-27T12:31:55.187Z,13.55
2019-03-27T12:32:55.305Z,13.59
2019-03-27T12:33:55.133Z,13.44
2019-03-27T12:34:55.183Z,13.44
2019-03-27T12:35:55.107Z,13.44
2019-03-27T12:36:55.192Z,13.51
2019-03-27T12:37:55.126Z,13.54
2019-03-27T12:38:55.122Z,13.54
2019-03-27T12:39:55.064Z,13.55
2019-03-27T12:40:55.119Z,13.57
2019-03-27T12:41:55.312Z,13.38
2019-03-27T12:42:55.127Z,13.38
2019-03-27T12:43:55.068Z,13.54
2019-03-27T12:44:55.052Z,13.51
2019-03-27T12:45:55.003Z,13.25
2019-03-27T12:46:55.054Z,13.14
2019-03-27T12:47:54.998Z,13.06
2019-03-27T12:48:55.103Z,12.89
2019-03-27T12:49:54.955Z,12.85
2019-03-27T12:50:54.978Z,12.79
2019-03-27T12:51:54.939Z,12.69
2019-03-27T12:52:54.997Z,12.74
2019-03-27T12:53:54.962Z,12.67
2019-03-27T12:54:55.019Z,12.74
2019-03-27T12:55:54.902Z,12.92
2019-03-27T12:56:54.928Z,13.12
2019-03-27T12:57:54.880Z,13.39
2019-03-27T12:58:54.933Z,13.84
2019-03-27T12:59:54.903Z,14.29
2019-03-27T13:00:54.952Z,14.35
2019-03-27T13:01:54.826Z,14.36
2019-03-27T13:02:54.877Z,14.35
2019-03-27T13:03:54.860Z,14.46
2019-03-27T13:04:54.884Z,14.36
2019-03-27T13:05:54.794Z,14.35
2019-03-27T13:06:54.909Z,14.49
2019-03-27T13:07:54.784Z,14.78
2019-03-27T13:08:54.798Z,14.90
2019-03-27T13:09:54.769Z,14.95
2019-03-27T13:10:54.817Z,14.78
2019-03-27T13:11:54.755Z,14.72
2019-03-27T13:12:54.829Z,14.72
2019-03-27T13:13:54.698Z,14.69
2019-03-27T13:14:54.794Z,14.79
2019-03-27T13:15:54.692Z,14.80
2019-03-27T13:16:54.766Z,14.69
2019-03-27T13:17:54.656Z,14.20
2019-03-27T13:18:54.668Z,13.91
2019-03-27T13:19:54.664Z,13.87
2019-03-27T13:20:54.679Z,13.75
2019-03-27T13:21:54.603Z,13.48
2019-03-27T13:22:54.717Z,13.29
2019-03-27T13:23:54.586Z,13.12
2019-03-27T13:24:54.637Z,13.09
2019-03-27T13:25:54.562Z,13.12
2019-03-27T13:26:54.662Z,13.27
2019-03-27T13:27:54.541Z,13.38
2019-03-27T13:28:54.631Z,13.31
2019-03-27T13:29:54.524Z,13.27
2019-03-27T13:30:54.581Z,13.27